createdAt,value
2023-03-03T00:22:04.668Z,1.80
2023-03-03T00:24:43.459Z,2.00
2023-03-03T00:27:35.153Z,1.80
2023-03-03T00:30:09.155Z,1.80
2023-03-03T00:32:49.135Z,1.80
2023-03-03T00:35:29.523Z,1.90
2023-03-03T00:38:03.952Z,1.70
2023-03-03T00:40:41.058Z,1.80
2023-03-03T00:43:33.331Z,1.70
2023-03-03T00:46:06.254Z,1.60
2023-03-03T00:48:43.960Z,1.70
2023-03-03T00:51:33.390Z,1.70
2023-03-03T00:54:06.123Z,1.67
2023-03-03T00:56:38.852Z,1.60
2023-03-03T00:59:11.975Z,1.60
2023-03-03T01:01:44.953Z,1.70
2023-03-03T01:04:17.924Z,1.60
2023-03-03T01:06:51.602Z,1.60
2023-03-03T01:09:24.308Z,1.60
2023-03-03T01:11:58.192Z,1.80
2023-03-03T01:14:31.844Z,1.50
2023-03-03T01:17:05.001Z,1.60
2023-03-03T01:19:38.119Z,1.60
2023-03-03T01:22:11.148Z,1.60
2023-03-03T01:24:43.873Z,1.60
2023-03-03T01:27:16.537Z,1.60
2023-03-03T01:29:49.375Z,1.60
2023-03-03T01:32:21.919Z,1.60
2023-03-03T01:34:54.677Z,1.43
2023-03-03T01:37:27.683Z,1.50
2023-03-03T01:40:00.660Z,1.50
2023-03-03T01:42:33.543Z,1.50
2023-03-03T01:45:22.791Z,1.40
2023-03-03T01:48:09.427Z,1.43
2023-03-03T01:50:44.657Z,1.40
2023-03-03T01:53:22.223Z,1.30
2023-03-03T01:55:56.932Z,1.30
2023-03-03T01:58:31.961Z,1.40
2023-03-03T02:01:06.471Z,1.40
2023-03-03T02:03:39.672Z,1.40
2023-03-03T02:06:17.028Z,1.40
2023-03-03T02:08:54.678Z,1.40
2023-03-03T02:11:28.692Z,1.40
2023-03-03T02:14:01.557Z,1.40
2023-03-03T02:16:34.366Z,1.40
2023-03-03T02:19:08.041Z,1.40
2023-03-03T02:21:41.510Z,1.40
2023-03-03T02:24:30.834Z,1.40
2023-03-03T02:27:03.529Z,1.40
2023-03-03T02:29:36.355Z,1.50
2023-03-03T02:32:09.229Z,1.40
2023-03-03T02:34:55.936Z,1.30
2023-03-03T02:37:28.691Z,1.40
2023-03-03T02:40:01.245Z,1.40
2023-03-03T02:42:35.136Z,1.40
2023-03-03T02:45:12.233Z,1.30
2023-03-03T02:47:44.917Z,1.40
2023-03-03T02:50:17.670Z,1.30
2023-03-03T02:52:50.638Z,1.20
2023-03-03T02:55:27.376Z,1.20
2023-03-03T02:58:00.317Z,1.17
2023-03-03T03:00:34.331Z,1.20
2023-03-03T03:03:06.990Z,1.30
2023-03-03T03:05:39.586Z,1.30
2023-03-03T03:08:12.456Z,1.20
2023-03-03T03:10:45.194Z,1.20
2023-03-03T03:13:18.127Z,1.40
2023-03-03T03:15:50.980Z,1.27
2023-03-03T03:18:23.842Z,1.30
2023-03-03T03:20:56.584Z,1.20
2023-03-03T03:23:29.382Z,1.20
2023-03-03T03:26:02.242Z,1.40
2023-03-03T03:28:35.039Z,1.30
2023-03-03T03:31:09.098Z,1.20
2023-03-03T03:33:41.942Z,1.33
2023-03-03T03:36:15.173Z,1.30
2023-03-03T03:38:47.892Z,1.30
2023-03-03T03:41:20.503Z,1.20
2023-03-03T03:43:53.147Z,1.20
2023-03-03T03:46:26.091Z,1.20
2023-03-03T03:48:59.162Z,1.10
2023-03-03T03:51:31.999Z,1.20
2023-03-03T03:54:06.215Z,1.30
2023-03-03T03:56:39.261Z,1.20
2023-03-03T03:59:12.431Z,1.20
2023-03-03T04:01:45.260Z,1.20
2023-03-03T04:04:18.428Z,1.20
2023-03-03T04:06:51.447Z,1.20
2023-03-03T04:09:24.817Z,1.20
2023-03-03T04:11:57.511Z,1.10
2023-03-03T04:14:30.345Z,1.20
2023-03-03T04:17:03.283Z,1.30
2023-03-03T04:19:36.324Z,1.20
2023-03-03T04:22:09.769Z,1.10
2023-03-03T04:24:43.333Z,1.07
2023-03-03T04:27:17.338Z,1.10
2023-03-03T04:29:50.158Z,1.10
2023-03-03T04:32:22.933Z,1.10
2023-03-03T04:35:05.608Z,1.10
2023-03-03T04:37:29.883Z,1.00
2023-03-03T04:40:02.716Z,0.90
2023-03-03T04:42:35.486Z,1.00
2023-03-03T04:45:08.679Z,1.00
2023-03-03T04:47:41.428Z,1.00
2023-03-03T04:50:15.317Z,1.00
2023-03-03T04:52:47.825Z,1.00
2023-03-03T04:55:20.662Z,1.00
2023-03-03T04:57:53.601Z,1.00
2023-03-03T05:00:26.355Z,1.10
2023-03-03T05:02:59.187Z,1.00
2023-03-03T05:05:34.477Z,1.00
2023-03-03T05:08:07.401Z,1.00
2023-03-03T05:10:42.929Z,1.07
2023-03-03T05:13:16.944Z,1.00
2023-03-03T05:15:54.232Z,0.90
2023-03-03T05:18:28.679Z,0.90
2023-03-03T05:21:01.405Z,0.90
2023-03-03T05:23:34.434Z,0.90
2023-03-03T05:26:07.605Z,0.90
2023-03-03T05:28:40.418Z,0.80
2023-03-03T05:31:18.107Z,0.90
2023-03-03T05:33:51.246Z,0.90
2023-03-03T05:36:24.229Z,0.90
2023-03-03T05:38:57.087Z,0.90
2023-03-03T05:41:29.999Z,0.80
2023-03-03T05:44:03.125Z,0.90
2023-03-03T05:46:35.927Z,1.00
2023-03-03T05:49:08.973Z,0.90
2023-03-03T05:51:41.780Z,0.90
2023-03-03T05:54:14.336Z,0.90
2023-03-03T05:56:49.495Z,0.90
2023-03-03T05:59:22.497Z,0.90
2023-03-03T06:01:55.237Z,0.90
2023-03-03T06:04:28.177Z,0.90
2023-03-03T06:07:00.980Z,0.90
2023-03-03T06:09:33.735Z,0.90
2023-03-03T06:12:06.629Z,0.90
2023-03-03T06:14:39.354Z,0.90
2023-03-03T06:17:12.635Z,0.90
2023-03-03T06:19:45.544Z,0.80
2023-03-03T06:22:22.463Z,0.90
2023-03-03T06:24:55.273Z,0.90
2023-03-03T06:27:33.379Z,0.90
2023-03-03T06:30:06.481Z,0.80
2023-03-03T06:32:39.294Z,0.90
2023-03-03T06:35:12.244Z,0.90
2023-03-03T06:37:45.017Z,0.90
2023-03-03T06:40:18.544Z,0.90
2023-03-03T06:42:51.508Z,0.90
2023-03-03T06:45:24.020Z,0.97
2023-03-03T06:56:24.251Z,1.00
2023-03-03T06:58:58.445Z,1.00
2023-03-03T07:01:33.475Z,0.93
2023-03-03T07:04:07.763Z,0.90
2023-03-03T07:06:40.747Z,0.90
2023-03-03T07:09:20.940Z,0.90
2023-03-03T07:11:54.201Z,1.00
2023-03-03T07:14:27.082Z,1.23
2023-03-03T07:17:02.461Z,1.10
2023-03-03T07:19:40.088Z,1.00
2023-03-03T07:22:26.545Z,0.90
2023-03-03T07:25:07.351Z,1.00
2023-03-03T07:27:40.916Z,1.00
2023-03-03T07:30:37.320Z,1.00
2023-03-03T07:33:11.572Z,1.00
2023-03-03T07:35:46.194Z,1.00
2023-03-03T07:38:40.130Z,0.90
2023-03-03T07:41:24.404Z,1.00
2023-03-03T07:43:59.831Z,0.90
2023-03-03T07:46:46.985Z,0.90
2023-03-03T07:49:37.149Z,0.90
2023-03-03T07:52:27.931Z,0.90
2023-03-03T07:55:02.719Z,0.90
2023-03-03T07:57:41.794Z,0.80
2023-03-03T08:00:23.468Z,0.93
2023-03-03T08:03:10.471Z,0.90
2023-03-03T08:05:45.614Z,0.90
2023-03-03T08:08:37.106Z,0.90
2023-03-03T08:11:11.118Z,0.90
2023-03-03T08:13:46.129Z,0.90
2023-03-03T08:16:20.971Z,0.80
2023-03-03T08:18:57.619Z,0.90
2023-03-03T08:21:30.956Z,0.90
2023-03-03T08:24:03.616Z,0.80
2023-03-03T08:26:36.303Z,0.80
2023-03-03T08:29:09.149Z,0.80
2023-03-03T08:31:42.283Z,0.83
2023-03-03T08:34:15.218Z,0.90
2023-03-03T08:36:51.586Z,0.90
2023-03-03T08:39:24.521Z,0.90
2023-03-03T08:41:57.268Z,0.90
2023-03-03T08:44:30.433Z,0.80
2023-03-03T08:47:03.244Z,0.90
2023-03-03T08:49:35.987Z,0.90
2023-03-03T08:52:08.834Z,0.90
2023-03-03T08:54:41.696Z,0.90
2023-03-03T08:57:14.601Z,0.90
2023-03-03T08:59:51.474Z,0.90
2023-03-03T09:02:24.583Z,0.90
2023-03-03T09:04:57.409Z,0.90
2023-03-03T09:07:30.244Z,0.80
2023-03-03T09:10:02.971Z,0.90
2023-03-03T09:12:40.668Z,0.80
2023-03-03T09:15:33.439Z,0.90
2023-03-03T09:18:30.161Z,0.90
2023-03-03T09:21:02.984Z,0.90
2023-03-03T09:23:46.113Z,0.90
2023-03-03T09:26:32.122Z,0.90
2023-03-03T09:29:10.043Z,0.90
2023-03-03T09:31:44.966Z,0.90
2023-03-03T09:34:44.243Z,0.90
2023-03-03T09:37:21.735Z,0.90
2023-03-03T09:39:56.492Z,0.90
2023-03-03T09:42:51.243Z,0.90
2023-03-03T09:45:29.189Z,0.90
2023-03-03T09:48:19.416Z,0.90
2023-03-03T09:51:00.940Z,0.90
2023-03-03T09:53:59.397Z,0.90
2023-03-03T09:56:40.342Z,0.90
2023-03-03T09:59:24.279Z,0.90
2023-03-03T10:02:18.507Z,0.80
2023-03-03T10:04:59.467Z,0.90
2023-03-03T10:07:42.862Z,0.90
2023-03-03T10:10:26.744Z,0.90
2023-03-03T10:13:10.422Z,0.90
2023-03-03T10:15:54.610Z,0.90
2023-03-03T10:18:38.671Z,0.90
2023-03-03T10:21:16.027Z,0.90
2023-03-03T10:23:59.171Z,0.90
2023-03-03T10:27:13.583Z,0.90
2023-03-03T10:30:00.655Z,0.90
2023-03-03T10:32:47.853Z,0.90
2023-03-03T10:35:34.684Z,0.80
2023-03-03T10:38:21.793Z,0.90
2023-03-03T10:41:16.143Z,0.90
2023-03-03T10:44:13.126Z,0.80
2023-03-03T10:47:03.421Z,0.90
2023-03-03T10:49:46.809Z,0.80
2023-03-03T10:52:36.665Z,0.80
2023-03-03T10:55:20.583Z,0.90
2023-03-03T10:57:55.623Z,0.90
2023-03-03T11:00:30.286Z,0.90
2023-03-03T11:03:05.480Z,0.90
2023-03-03T11:05:40.610Z,0.80
2023-03-03T11:08:18.764Z,0.90
2023-03-03T11:10:53.346Z,0.90
2023-03-03T11:13:48.444Z,0.90
2023-03-03T11:16:38.570Z,0.90
2023-03-03T11:19:29.957Z,0.90
2023-03-03T11:22:39.778Z,0.80
2023-03-03T11:25:25.895Z,0.80
2023-03-03T11:28:16.668Z,0.90
2023-03-03T11:31:06.806Z,0.90
2023-03-03T11:33:45.430Z,0.90
2023-03-03T11:36:25.822Z,0.90
2023-03-03T11:39:06.476Z,0.90
2023-03-03T11:41:46.583Z,0.80
2023-03-03T11:44:36.490Z,0.90
2023-03-03T11:47:20.022Z,0.80
2023-03-03T11:50:11.613Z,0.80
2023-03-03T11:52:52.760Z,0.80
2023-03-03T11:55:39.699Z,0.80
2023-03-03T11:58:23.109Z,0.80
2023-03-03T12:01:20.393Z,0.80
2023-03-03T12:04:17.992Z,0.80
2023-03-03T12:07:19.930Z,0.80
2023-03-03T12:09:53.904Z,0.80
2023-03-03T12:12:29.095Z,0.90
2023-03-03T12:15:20.315Z,0.80
2023-03-03T12:18:06.421Z,0.80
2023-03-03T12:21:07.060Z,0.80
2023-03-03T12:24:13.620Z,0.80
2023-03-03T12:27:04.890Z,0.80
2023-03-03T12:29:53.416Z,0.90
2023-03-03T12:32:29.592Z,0.80
2023-03-03T12:35:09.776Z,0.90
2023-03-03T12:37:44.862Z,0.80
2023-03-03T12:40:28.412Z,0.80
2023-03-03T12:43:14.059Z,0.80
2023-03-03T12:45:52.259Z,0.80
2023-03-03T12:48:27.293Z,0.80
2023-03-03T12:51:23.514Z,0.80
2023-03-03T12:54:16.684Z,0.80
2023-03-03T12:57:18.719Z,0.80
2023-03-03T12:59:53.895Z,0.80
2023-03-03T13:02:34.541Z,0.80
2023-03-03T13:05:27.388Z,0.80
2023-03-03T13:08:13.910Z,0.80
2023-03-03T13:10:51.799Z,0.80
2023-03-03T13:13:32.138Z,0.80
2023-03-03T13:16:40.632Z,0.80
2023-03-03T13:19:13.043Z,0.80
2023-03-03T13:21:51.144Z,0.80
2023-03-03T13:24:35.575Z,0.80
2023-03-03T13:27:10.233Z,0.80
2023-03-03T13:29:53.483Z,0.80
2023-03-03T13:32:37.616Z,0.80
2023-03-03T13:35:12.925Z,0.80
2023-03-03T13:37:50.453Z,0.80
2023-03-03T13:40:25.153Z,0.83
2023-03-03T13:43:18.424Z,0.80
2023-03-03T13:46:08.227Z,0.70
2023-03-03T13:49:04.791Z,0.80
2023-03-03T13:51:58.997Z,0.80
2023-03-03T13:54:48.654Z,0.80
2023-03-03T13:57:49.340Z,0.80
2023-03-03T14:00:27.087Z,0.80
2023-03-03T14:03:17.555Z,0.80
2023-03-03T14:05:55.222Z,0.80
2023-03-03T14:08:39.229Z,0.80
2023-03-03T14:11:29.231Z,0.70
2023-03-03T14:14:22.165Z,0.80
2023-03-03T14:17:03.034Z,0.80
2023-03-03T14:19:50.060Z,0.80
2023-03-03T14:22:28.320Z,0.80
2023-03-03T14:25:11.807Z,0.80
2023-03-03T14:27:52.855Z,0.80
2023-03-03T14:30:31.225Z,0.80
2023-03-03T14:33:09.727Z,0.80
2023-03-03T14:35:54.022Z,0.80
2023-03-03T14:38:28.501Z,0.80
2023-03-03T14:41:24.040Z,0.80
2023-03-03T14:44:27.662Z,0.80
2023-03-03T14:47:26.870Z,0.90
2023-03-03T14:50:05.476Z,0.90
2023-03-03T14:52:39.461Z,0.80
2023-03-03T14:55:14.411Z,0.80
2023-03-03T14:57:50.692Z,0.80
2023-03-03T15:00:31.515Z,0.80
2023-03-03T15:03:10.329Z,0.80
2023-03-03T15:05:45.253Z,0.80
2023-03-03T15:08:24.449Z,0.80
2023-03-03T15:10:57.420Z,0.80
2023-03-03T15:13:34.972Z,0.80
2023-03-03T15:16:22.598Z,0.80
2023-03-03T15:19:03.783Z,0.80
2023-03-03T15:21:38.655Z,0.80
2023-03-03T15:24:47.052Z,0.80
2023-03-03T15:27:21.870Z,0.80
2023-03-03T15:30:05.400Z,0.80
2023-03-03T15:32:46.453Z,0.80
2023-03-03T15:35:23.874Z,0.80
2023-03-03T15:38:01.671Z,0.80
2023-03-03T15:40:54.175Z,0.90
2023-03-03T15:43:37.438Z,0.90
2023-03-03T15:46:39.910Z,0.80
2023-03-03T15:49:21.364Z,0.80
2023-03-03T15:52:04.461Z,0.90
2023-03-03T15:54:51.116Z,0.80
2023-03-03T15:57:32.296Z,0.70
2023-03-03T16:00:24.374Z,0.80
2023-03-03T16:03:05.510Z,0.80
2023-03-03T16:05:43.534Z,0.80
2023-03-03T16:08:18.261Z,0.80
2023-03-03T16:11:10.843Z,0.80
2023-03-03T16:14:06.910Z,0.70
2023-03-03T16:16:56.662Z,0.80
2023-03-03T16:19:47.186Z,0.80
2023-03-03T16:22:27.906Z,0.80
2023-03-03T16:25:11.813Z,0.90
2023-03-03T16:28:05.509Z,0.80
2023-03-03T16:30:53.418Z,0.80
2023-03-03T16:33:59.063Z,0.80
2023-03-03T16:36:57.986Z,0.80
2023-03-03T16:39:41.650Z,0.80
2023-03-03T16:42:28.301Z,0.80
2023-03-03T16:45:05.544Z,0.80
2023-03-03T16:47:52.812Z,0.80
2023-03-03T16:50:48.386Z,0.80
2023-03-03T16:53:25.822Z,0.80
2023-03-03T16:56:06.661Z,0.80
2023-03-03T16:59:02.625Z,0.80
2023-03-03T17:01:58.662Z,0.80
2023-03-03T17:04:45.039Z,0.80
2023-03-03T17:07:38.052Z,0.80
2023-03-03T17:10:43.251Z,0.80
2023-03-03T17:13:27.018Z,0.80
2023-03-03T17:16:07.692Z,0.80
2023-03-03T17:18:58.941Z,0.80
2023-03-03T17:21:59.160Z,0.80
2023-03-03T17:25:02.160Z,0.90
2023-03-03T17:28:02.283Z,0.80
2023-03-03T17:31:02.325Z,0.80
2023-03-03T17:33:40.474Z,0.80
2023-03-03T17:36:34.687Z,0.80
2023-03-03T17:39:32.069Z,0.80
2023-03-03T17:42:24.584Z,0.80
2023-03-03T17:45:17.784Z,0.80
2023-03-03T17:47:55.588Z,0.83
2023-03-03T17:50:42.969Z,0.80
2023-03-03T17:53:39.963Z,0.73
2023-03-03T17:56:26.663Z,0.80
2023-03-03T17:59:07.199Z,0.80
2023-03-03T18:02:03.227Z,0.80
2023-03-03T18:04:40.608Z,0.80
2023-03-03T18:07:41.039Z,0.70
2023-03-03T18:10:34.352Z,0.80
2023-03-03T18:13:12.035Z,0.90
2023-03-03T18:15:55.982Z,0.80
2023-03-03T18:18:39.973Z,0.80
2023-03-03T18:21:24.107Z,0.80
2023-03-03T18:23:59.805Z,0.80
2023-03-03T18:26:37.885Z,0.80
2023-03-03T18:29:22.079Z,0.70
2023-03-03T18:32:03.191Z,0.80
2023-03-03T18:34:40.511Z,0.80
2023-03-03T18:37:18.669Z,0.80
2023-03-03T18:39:53.794Z,0.80
2023-03-03T18:42:46.623Z,0.80
2023-03-03T18:45:28.698Z,0.70
2023-03-03T18:48:09.128Z,0.80
2023-03-03T18:50:44.203Z,0.80
2023-03-03T18:53:33.278Z,0.80
2023-03-03T18:56:06.951Z,0.80
2023-03-03T18:58:43.206Z,0.80
2023-03-03T19:01:38.167Z,0.80
2023-03-03T19:04:19.141Z,0.80
2023-03-03T19:06:59.833Z,0.70
2023-03-03T19:09:54.305Z,0.80
2023-03-03T19:12:47.271Z,0.80
2023-03-03T19:15:37.667Z,0.80
2023-03-03T19:18:25.629Z,0.80
2023-03-03T19:21:03.768Z,0.70
2023-03-03T19:24:02.911Z,0.80
2023-03-03T19:26:54.486Z,0.70
2023-03-03T19:29:35.392Z,0.77
2023-03-03T19:32:21.973Z,0.80
2023-03-03T19:35:02.607Z,0.73
2023-03-03T19:37:54.672Z,0.80
2023-03-03T19:40:35.941Z,0.80
2023-03-03T19:43:31.411Z,0.70
2023-03-03T19:46:37.989Z,0.70
2023-03-03T19:49:15.737Z,0.70
2023-03-03T19:51:56.884Z,0.80
2023-03-03T19:54:37.109Z,0.80
2023-03-03T19:57:12.316Z,0.80
2023-03-03T19:59:55.776Z,0.80
2023-03-03T20:02:55.920Z,0.80
2023-03-03T20:05:55.154Z,0.80
2023-03-03T20:08:35.817Z,0.70
2023-03-03T20:11:22.954Z,0.80
2023-03-03T20:14:09.757Z,0.80
2023-03-03T20:16:51.889Z,0.70
2023-03-03T20:19:29.546Z,0.80
2023-03-03T20:22:39.369Z,0.80
2023-03-03T20:25:30.539Z,0.80
2023-03-03T20:28:11.744Z,0.80
2023-03-03T20:31:04.362Z,0.80
2023-03-03T20:33:42.091Z,0.80
2023-03-03T20:36:31.361Z,0.80
2023-03-03T20:39:12.042Z,0.80
2023-03-03T20:41:55.447Z,0.80
2023-03-03T20:44:33.372Z,0.80
2023-03-03T20:47:26.189Z,0.80
2023-03-03T20:50:16.976Z,0.80
2023-03-03T20:53:11.144Z,0.70
2023-03-03T20:56:09.263Z,0.80
2023-03-03T20:58:56.380Z,0.80
2023-03-03T21:01:49.233Z,0.80
2023-03-03T21:04:33.099Z,0.80
2023-03-03T21:07:09.106Z,0.70
2023-03-03T21:09:44.722Z,0.80
2023-03-03T21:12:34.446Z,0.80
2023-03-03T21:15:09.458Z,0.80
2023-03-03T21:17:43.609Z,0.80
2023-03-03T21:20:24.069Z,0.80
2023-03-03T21:22:57.429Z,0.80
2023-03-03T21:25:54.937Z,0.80
2023-03-03T21:28:35.411Z,0.90
2023-03-03T21:31:19.158Z,0.80
2023-03-03T21:34:00.247Z,0.80
2023-03-03T21:36:44.534Z,0.80
2023-03-03T21:39:34.522Z,0.80
2023-03-03T21:42:11.807Z,0.80
2023-03-03T21:44:56.484Z,0.80
2023-03-03T21:47:31.123Z,0.80
2023-03-03T21:50:04.010Z,0.80
2023-03-03T21:52:37.375Z,0.80
2023-03-03T21:55:11.157Z,0.80
2023-03-03T21:57:43.922Z,0.70
2023-03-03T22:00:17.510Z,0.73
2023-03-03T22:02:50.678Z,0.80
2023-03-03T22:05:24.051Z,0.80
2023-03-03T22:07:57.016Z,0.80
2023-03-03T22:10:29.816Z,0.80
2023-03-03T22:13:02.914Z,0.73
2023-03-03T22:15:35.858Z,0.70
2023-03-03T22:18:08.988Z,0.80
2023-03-03T22:20:42.027Z,0.70
2023-03-03T22:23:15.030Z,0.80
2023-03-03T22:25:47.926Z,0.80
2023-03-03T22:28:20.789Z,0.80
2023-03-03T22:30:53.580Z,0.80
2023-03-03T22:33:26.430Z,0.80
2023-03-03T22:35:59.457Z,0.80
2023-03-03T22:38:32.369Z,0.80
2023-03-03T22:41:05.618Z,0.70
2023-03-03T22:43:38.386Z,0.80
2023-03-03T22:46:11.417Z,0.70
2023-03-03T22:48:44.213Z,0.80
2023-03-03T22:51:16.998Z,0.70
2023-03-03T22:53:50.070Z,0.80
2023-03-03T22:56:22.949Z,0.70
2023-03-03T22:58:55.591Z,0.73
2023-03-03T23:01:28.525Z,0.80
2023-03-03T23:04:01.464Z,0.80
2023-03-03T23:06:34.281Z,0.70
2023-03-03T23:09:07.115Z,0.77
2023-03-03T23:11:39.906Z,0.70
2023-03-03T23:14:12.619Z,0.80
2023-03-03T23:16:45.433Z,0.70
2023-03-03T23:19:18.233Z,0.70
2023-03-03T23:21:51.004Z,0.80
2023-03-03T23:24:23.838Z,0.70
2023-03-03T23:26:58.134Z,0.80
2023-03-03T23:29:34.471Z,0.80
2023-03-03T23:32:08.366Z,0.70
2023-03-03T23:34:41.787Z,0.80
2023-03-03T23:37:14.837Z,0.77
2023-03-03T23:39:47.796Z,0.80
2023-03-03T23:42:20.768Z,0.80
2023-03-03T23:44:53.908Z,0.80
2023-03-03T23:47:27.102Z,0.77
2023-03-03T23:50:00.012Z,0.70
2023-03-03T23:52:33.145Z,0.70
2023-03-03T23:55:06.435Z,0.73
2023-03-03T23:57:39.525Z,0.80
